createdAt,value
2019-04-21T00:01:54.550Z,8.00
2019-04-21T00:04:38.139Z,10.77
2019-04-21T00:07:17.270Z,8.03
2019-04-21T00:12:26.887Z,9.67
2019-04-21T00:14:39.553Z,8.53
2019-04-21T00:17:03.579Z,8.53
2019-04-21T00:19:31.789Z,8.33
2019-04-21T00:22:12.668Z,8.60
2019-04-21T00:24:45.108Z,5.62
2019-04-21T00:27:15.977Z,7.42
2019-04-21T00:29:48.236Z,6.03
2019-04-21T00:32:17.854Z,8.08
2019-04-21T00:34:34.171Z,9.93
2019-04-21T00:37:14.618Z,10.95
2019-04-21T00:42:24.158Z,9.38
2019-04-21T00:44:54.179Z,10.13
2019-04-21T00:47:26.758Z,11.05
2019-04-21T00:49:56.540Z,12.75
2019-04-21T00:55:20.217Z,7.20
2019-04-21T00:57:44.955Z,16.17
2019-04-21T01:00:16.387Z,8.18
2019-04-21T01:02:44.450Z,6.35
2019-04-21T01:05:19.376Z,10.50
2019-04-21T01:07:42.384Z,7.55
2019-04-21T01:10:05.251Z,10.20
2019-04-21T01:12:41.945Z,10.18
2019-04-21T01:15:18.304Z,11.08
2019-04-21T01:17:40.862Z,8.27
2019-04-21T01:20:06.299Z,9.73
2019-04-21T01:22:21.145Z,8.33
2019-04-21T01:25:01.821Z,9.75
2019-04-21T01:27:39.701Z,11.08
2019-04-21T01:30:11.894Z,8.08
2019-04-21T01:32:43.878Z,8.17
2019-04-21T01:35:08.662Z,9.00
2019-04-21T01:37:44.010Z,8.20
2019-04-21T01:40:16.936Z,9.55
2019-04-21T01:42:45.572Z,8.80
2019-04-21T01:45:09.327Z,11.27
2019-04-21T01:47:40.520Z,8.20
2019-04-21T01:50:02.853Z,10.15
2019-04-21T01:52:49.921Z,9.53
2019-04-21T01:55:21.211Z,8.65
2019-04-21T01:57:52.768Z,8.90
2019-04-21T02:00:13.303Z,9.83
2019-04-21T02:03:04.315Z,7.62
2019-04-21T02:05:34.402Z,10.32
2019-04-21T02:07:54.724Z,9.18
2019-04-21T02:10:34.258Z,9.83
2019-04-21T02:12:56.692Z,11.33
2019-04-21T02:15:39.088Z,10.63
2019-04-21T02:17:59.657Z,6.50
2019-04-21T02:20:21.540Z,6.17
2019-04-21T02:23:29.868Z,7.22
2019-04-21T02:25:50.840Z,8.50
2019-04-21T02:28:03.749Z,7.60
2019-04-21T02:30:56.570Z,11.18
2019-04-21T02:33:32.296Z,6.53
2019-04-21T02:38:16.520Z,8.80
2019-04-21T02:43:18.668Z,9.70
2019-04-21T02:45:46.699Z,12.43
2019-04-21T02:48:34.416Z,11.50
2019-04-21T02:50:47.267Z,14.83
2019-04-21T02:54:07.454Z,10.72
2019-04-21T02:55:56.389Z,11.43
2019-04-21T03:01:07.001Z,13.32
2019-04-21T03:03:36.427Z,12.65
2019-04-21T03:16:17.099Z,9.73
2019-04-21T03:18:56.630Z,8.20
2019-04-21T03:23:51.738Z,9.55
2019-04-21T03:26:20.247Z,8.43
2019-04-21T03:28:43.478Z,10.53
2019-04-21T03:34:18.282Z,10.70
2019-04-21T03:38:45.387Z,16.40
2019-04-21T03:46:15.854Z,14.70
2019-04-21T03:51:23.128Z,12.13
2019-04-21T03:53:46.289Z,15.53
2019-04-21T03:56:27.249Z,19.45
2019-04-21T03:58:59.378Z,18.70
2019-04-21T04:01:23.972Z,18.37
2019-04-21T04:16:58.496Z,17.90
2019-04-21T04:19:30.164Z,17.92
2019-04-21T04:26:57.176Z,14.20
2019-04-21T04:29:22.525Z,15.08
2019-04-21T04:31:43.639Z,21.93
2019-04-21T04:34:40.496Z,17.30
2019-04-21T04:37:12.655Z,18.87
2019-04-21T04:39:36.536Z,18.12
2019-04-21T04:42:09.607Z,15.23
2019-04-21T04:47:06.705Z,19.80
2019-04-21T04:52:18.890Z,15.00
2019-04-21T04:54:47.450Z,20.68
2019-04-21T04:57:09.995Z,16.67
2019-04-21T05:02:17.117Z,13.55
2019-04-21T05:04:46.067Z,17.10
2019-04-21T05:09:33.662Z,14.95
2019-04-21T05:11:56.031Z,18.70
2019-04-21T05:14:35.464Z,17.05
2019-04-21T05:17:03.780Z,16.55
2019-04-21T05:19:42.180Z,19.02
2019-04-21T05:22:09.215Z,14.98
2019-04-21T05:24:23.093Z,20.20
2019-04-21T05:26:55.444Z,15.77
2019-04-21T05:29:23.267Z,10.88
2019-04-21T05:32:21.007Z,17.50
2019-04-21T05:34:50.689Z,13.98
2019-04-21T05:37:36.915Z,16.12
2019-04-21T05:40:00.244Z,16.75
2019-04-21T05:42:36.665Z,17.10
2019-04-21T05:45:17.423Z,17.50
2019-04-21T05:47:46.366Z,17.25
2019-04-21T05:50:11.407Z,13.72
2019-04-21T05:52:44.982Z,15.45
2019-04-21T05:55:34.305Z,20.37
2019-04-21T05:57:55.854Z,16.97
2019-04-21T06:00:48.151Z,20.23
2019-04-21T06:03:05.605Z,23.50
2019-04-21T06:05:39.064Z,18.77
2019-04-21T06:08:03.135Z,15.95
2019-04-21T06:10:38.345Z,20.50
2019-04-21T06:13:06.038Z,16.12
2019-04-21T06:15:41.720Z,20.17
2019-04-21T06:18:05.308Z,12.98
2019-04-21T06:20:35.558Z,17.92
2019-04-21T06:23:03.408Z,17.35
2019-04-21T06:25:48.934Z,19.37
2019-04-21T06:28:04.555Z,17.60
2019-04-21T06:30:43.939Z,17.15
2019-04-21T06:33:06.560Z,16.90
2019-04-21T06:38:19.332Z,15.10
2019-04-21T06:40:48.169Z,13.43
2019-04-21T06:43:25.960Z,14.67
2019-04-21T06:45:49.460Z,16.53
2019-04-21T06:48:18.472Z,18.15
2019-04-21T06:50:51.429Z,15.28
2019-04-21T06:53:22.076Z,16.00
2019-04-21T06:55:46.710Z,11.70
2019-04-21T06:58:10.162Z,14.15
2019-04-21T07:00:43.213Z,21.90
2019-04-21T07:03:20.576Z,15.28
2019-04-21T07:05:57.597Z,14.25
2019-04-21T07:08:31.279Z,12.90
2019-04-21T07:10:51.720Z,15.83
2019-04-21T07:13:15.303Z,12.23
2019-04-21T07:15:53.148Z,19.10
2019-04-21T07:18:23.032Z,12.90
2019-04-21T07:20:54.941Z,10.20
2019-04-21T07:23:28.418Z,12.60
2019-04-21T07:25:51.935Z,15.00
2019-04-21T07:28:25.382Z,11.95
2019-04-21T07:30:59.391Z,11.10
2019-04-21T07:35:59.529Z,15.45
2019-04-21T07:38:31.844Z,11.85
2019-04-21T07:40:51.508Z,15.55
2019-04-21T07:43:22.165Z,14.37
2019-04-21T07:45:52.464Z,12.70
2019-04-21T07:48:31.298Z,10.93
2019-04-21T07:51:09.145Z,12.80
2019-04-21T07:53:51.318Z,14.90
2019-04-21T07:56:06.486Z,12.00
2019-04-21T07:58:53.719Z,10.55
2019-04-21T08:03:47.801Z,10.25
2019-04-21T08:06:20.701Z,9.63
2019-04-21T08:08:51.039Z,9.53
2019-04-21T08:11:39.636Z,11.70
2019-04-21T08:14:13.900Z,8.23
2019-04-21T08:16:49.865Z,10.13
2019-04-21T08:19:13.161Z,9.50
2019-04-21T08:24:17.167Z,11.17
2019-04-21T08:26:46.936Z,14.87
2019-04-21T08:29:20.673Z,9.80
2019-04-21T08:31:56.485Z,10.63
2019-04-21T08:34:22.687Z,13.18
2019-04-21T08:36:47.186Z,9.93
2019-04-21T08:39:22.794Z,6.80
2019-04-21T08:41:45.285Z,9.55
2019-04-21T08:44:20.528Z,9.23
2019-04-21T08:46:46.100Z,9.05
2019-04-21T08:49:22.248Z,9.83
2019-04-21T08:51:58.783Z,9.68
2019-04-21T08:54:23.486Z,6.17
2019-04-21T08:57:05.950Z,5.95
2019-04-21T08:59:31.503Z,6.90
2019-04-21T09:02:07.656Z,7.00
2019-04-21T09:04:33.473Z,4.87
2019-04-21T09:07:26.511Z,7.20
2019-04-21T09:09:44.171Z,6.78
2019-04-21T09:12:07.277Z,6.70
2019-04-21T09:14:39.555Z,5.53
2019-04-21T09:17:03.303Z,5.25
2019-04-21T09:22:07.117Z,8.25
2019-04-21T09:24:42.917Z,13.85
2019-04-21T09:27:08.402Z,11.80
2019-04-21T09:29:30.939Z,5.20
2019-04-21T09:31:54.456Z,6.15
2019-04-21T09:34:31.856Z,6.72
2019-04-21T09:37:03.341Z,5.58
2019-04-21T09:39:26.245Z,7.95
2019-04-21T09:41:57.130Z,5.33
2019-04-21T09:44:30.861Z,4.97
2019-04-21T09:46:56.371Z,6.30
2019-04-21T09:49:29.066Z,11.10
2019-04-21T09:51:55.578Z,7.42
2019-04-21T09:54:28.428Z,8.78
2019-04-21T09:57:00.269Z,5.03
2019-04-21T09:59:30.014Z,7.30
2019-04-21T10:02:06.442Z,4.25
2019-04-21T10:04:26.736Z,4.37
2019-04-21T10:06:56.664Z,5.22
2019-04-21T10:09:26.440Z,4.00
2019-04-21T10:11:55.052Z,7.45
2019-04-21T10:14:24.313Z,2.95
2019-04-21T10:16:58.104Z,3.42
2019-04-21T10:19:25.562Z,4.75
2019-04-21T10:21:54.287Z,5.92
2019-04-21T10:24:24.371Z,5.58
2019-04-21T10:26:53.531Z,3.05
2019-04-21T10:29:25.765Z,6.22
2019-04-21T10:31:54.525Z,6.97
2019-04-21T10:34:23.168Z,4.07
2019-04-21T10:36:53.277Z,3.42
2019-04-21T10:39:21.823Z,3.70
2019-04-21T10:41:51.159Z,4.28
2019-04-21T10:44:21.058Z,4.12
2019-04-21T10:46:50.726Z,4.58
2019-04-21T10:49:19.739Z,2.50
2019-04-21T10:51:48.885Z,5.57
2019-04-21T10:54:17.890Z,7.12
2019-04-21T10:56:49.037Z,3.90
2019-04-21T10:59:18.362Z,5.65
2019-04-21T11:01:47.199Z,7.45
2019-04-21T11:04:24.883Z,4.00
2019-04-21T11:06:48.585Z,3.42
2019-04-21T11:09:17.897Z,5.17
2019-04-21T11:11:48.720Z,5.83
2019-04-21T11:14:17.816Z,3.62
2019-04-21T11:16:49.041Z,3.30
2019-04-21T11:19:19.933Z,4.30
2019-04-21T11:21:49.304Z,8.45
2019-04-21T11:24:19.283Z,3.60
2019-04-21T11:26:49.790Z,3.50
2019-04-21T11:29:19.120Z,4.53
2019-04-21T11:31:49.250Z,6.28
2019-04-21T11:34:18.826Z,6.80
2019-04-21T11:36:48.076Z,3.03
2019-04-21T11:39:30.696Z,5.22
2019-04-21T11:41:49.743Z,6.05
2019-04-21T11:44:21.527Z,5.00
2019-04-21T11:46:48.909Z,4.85
2019-04-21T11:49:17.957Z,4.97
2019-04-21T11:51:46.964Z,3.70
2019-04-21T11:54:15.488Z,5.28
2019-04-21T11:56:45.145Z,6.60
2019-04-21T11:59:15.673Z,4.00
2019-04-21T12:01:45.657Z,4.30
2019-04-21T12:04:14.154Z,3.87
2019-04-21T12:06:46.704Z,6.40
2019-04-21T12:09:14.747Z,4.40
2019-04-21T12:11:43.368Z,2.98
2019-04-21T12:14:12.064Z,7.37
2019-04-21T12:16:41.197Z,4.20
2019-04-21T12:19:10.042Z,3.83
2019-04-21T12:21:54.690Z,4.83
2019-04-21T12:24:11.146Z,3.97
2019-04-21T12:26:40.134Z,5.53
2019-04-21T12:29:10.054Z,6.60
2019-04-21T12:31:57.223Z,4.12
2019-04-21T12:34:26.023Z,3.08
2019-04-21T12:36:55.236Z,5.00
2019-04-21T12:39:25.086Z,4.50
2019-04-21T12:41:54.300Z,4.97
2019-04-21T12:44:24.653Z,6.12
2019-04-21T12:46:54.042Z,6.30
2019-04-21T12:49:22.826Z,4.00
2019-04-21T12:51:53.509Z,4.95
2019-04-21T12:54:23.889Z,4.50
2019-04-21T12:56:53.655Z,5.27
2019-04-21T12:59:22.131Z,5.30
2019-04-21T13:01:50.834Z,3.98
2019-04-21T13:04:19.822Z,7.57
2019-04-21T13:06:48.129Z,4.67
2019-04-21T13:09:20.207Z,3.50
2019-04-21T13:11:47.020Z,4.50
2019-04-21T13:14:15.836Z,5.10
2019-04-21T13:16:45.657Z,6.22
2019-04-21T13:19:15.385Z,5.00
2019-04-21T13:21:45.895Z,5.10
2019-04-21T13:24:14.291Z,5.03
2019-04-21T13:26:48.413Z,6.12
2019-04-21T13:29:12.797Z,3.85
2019-04-21T13:31:42.514Z,4.70
2019-04-21T13:34:11.151Z,4.27
2019-04-21T13:36:39.784Z,3.47
2019-04-21T13:39:45.343Z,6.80
2019-04-21T13:41:59.905Z,4.55
2019-04-21T13:44:21.341Z,3.47
2019-04-21T13:46:50.285Z,5.10
2019-04-21T13:49:19.215Z,6.87
2019-04-21T13:51:48.160Z,4.42
2019-04-21T13:54:17.850Z,5.83
2019-04-21T13:56:46.936Z,4.97
2019-04-21T13:59:16.069Z,4.25
2019-04-21T14:01:45.678Z,5.95
2019-04-21T14:04:15.702Z,6.77
2019-04-21T14:06:44.676Z,4.23
2019-04-21T14:09:13.913Z,6.08
2019-04-21T14:11:43.437Z,4.70
2019-04-21T14:14:12.526Z,6.17
2019-04-21T14:16:42.200Z,6.47
2019-04-21T14:19:13.149Z,4.65
2019-04-21T14:21:43.398Z,3.67
2019-04-21T14:24:12.888Z,5.78
2019-04-21T14:26:42.482Z,4.55
2019-04-21T14:29:15.384Z,5.53
2019-04-21T14:31:44.389Z,5.08
2019-04-21T14:34:13.982Z,5.03
2019-04-21T14:36:44.453Z,7.35
2019-04-21T14:39:16.683Z,4.35
2019-04-21T14:41:46.273Z,5.50
2019-04-21T14:44:15.256Z,9.15
2019-04-21T14:46:49.158Z,3.30
2019-04-21T14:49:26.940Z,8.05
2019-04-21T14:51:57.141Z,3.42
2019-04-21T14:54:27.211Z,3.98
2019-04-21T14:56:55.621Z,6.58
2019-04-21T14:59:24.788Z,6.40
2019-04-21T15:01:53.752Z,4.37
2019-04-21T15:04:22.884Z,6.37
2019-04-21T15:06:52.308Z,6.30
2019-04-21T15:09:21.127Z,6.00
2019-04-21T15:11:49.909Z,6.78
2019-04-21T15:14:19.997Z,5.85
2019-04-21T15:16:49.048Z,3.92
2019-04-21T15:19:18.718Z,4.95
2019-04-21T15:21:48.123Z,3.85
2019-04-21T15:24:18.405Z,4.20
2019-04-21T15:26:48.339Z,6.10
2019-04-21T15:29:18.566Z,6.97
2019-04-21T15:31:48.388Z,5.08
2019-04-21T15:34:17.080Z,3.98
2019-04-21T15:36:48.235Z,4.40
2019-04-21T15:39:17.218Z,6.70
2019-04-21T15:41:45.704Z,6.40
2019-04-21T15:44:14.601Z,4.85
2019-04-21T15:46:43.939Z,10.80
2019-04-21T15:49:14.979Z,4.78
2019-04-21T15:51:44.250Z,4.40
2019-04-21T15:54:12.720Z,6.42
2019-04-21T15:56:49.032Z,6.33
2019-04-21T15:59:19.258Z,5.95
2019-04-21T16:01:52.532Z,4.33
2019-04-21T16:04:21.264Z,4.60
2019-04-21T16:06:53.462Z,5.45
2019-04-21T16:09:25.352Z,9.15
2019-04-21T16:11:53.497Z,6.92
2019-04-21T16:14:22.751Z,6.22
2019-04-21T16:16:53.558Z,6.50
2019-04-21T16:19:24.914Z,7.83
2019-04-21T16:21:54.743Z,5.70
2019-04-21T16:24:23.359Z,7.22
2019-04-21T16:26:53.544Z,5.17
2019-04-21T16:29:24.893Z,4.20
2019-04-21T16:31:53.577Z,4.97
2019-04-21T16:34:22.056Z,7.65
2019-04-21T16:36:51.791Z,6.12
2019-04-21T16:39:20.198Z,4.10
2019-04-21T16:41:50.190Z,4.20
2019-04-21T16:44:18.905Z,7.95
2019-04-21T16:46:47.924Z,4.83
2019-04-21T16:49:17.772Z,4.97
2019-04-21T16:51:49.827Z,4.85
2019-04-21T16:54:23.934Z,3.50
2019-04-21T16:57:03.723Z,4.92
2019-04-21T16:59:34.720Z,5.15
2019-04-21T17:02:03.106Z,5.65
2019-04-21T17:04:31.481Z,5.10
2019-04-21T17:07:00.948Z,3.15
2019-04-21T17:09:30.658Z,3.47
2019-04-21T17:12:05.622Z,8.50
2019-04-21T17:14:49.481Z,4.37
2019-04-21T17:17:25.235Z,5.42
2019-04-21T17:19:41.228Z,4.87
2019-04-21T17:22:03.985Z,6.42
2019-04-21T17:24:32.638Z,6.77
2019-04-21T17:27:01.061Z,5.97
2019-04-21T17:29:32.589Z,8.97
2019-04-21T17:32:03.007Z,4.42
2019-04-21T17:34:33.717Z,6.87
2019-04-21T17:37:01.307Z,4.67
2019-04-21T17:39:31.119Z,5.37
2019-04-21T17:42:15.282Z,6.33
2019-04-21T17:44:32.946Z,6.40
2019-04-21T17:47:05.655Z,6.33
2019-04-21T17:49:32.950Z,4.12
2019-04-21T17:52:16.902Z,7.20
2019-04-21T17:54:49.086Z,3.42
2019-04-21T17:57:36.472Z,4.20
2019-04-21T18:00:11.513Z,4.05
2019-04-21T18:02:42.947Z,4.17
2019-04-21T18:05:09.002Z,7.40
2019-04-21T18:07:47.726Z,4.62
2019-04-21T18:10:10.077Z,4.55
2019-04-21T18:12:35.944Z,4.62
2019-04-21T18:15:02.068Z,4.55
2019-04-21T18:17:22.658Z,4.80
2019-04-21T18:19:55.108Z,2.92
2019-04-21T18:22:32.132Z,6.15
2019-04-21T18:25:06.944Z,3.83
2019-04-21T18:27:32.416Z,3.55
2019-04-21T18:30:04.410Z,3.40
2019-04-21T18:32:38.513Z,6.92
2019-04-21T18:35:17.053Z,3.12
2019-04-21T18:38:05.734Z,4.00
2019-04-21T18:40:31.710Z,4.47
2019-04-21T18:43:35.911Z,6.10
2019-04-21T18:46:03.674Z,7.20
2019-04-21T18:48:21.776Z,5.80
2019-04-21T18:50:57.296Z,3.80
2019-04-21T18:53:41.358Z,6.35
2019-04-21T18:56:03.927Z,4.35
2019-04-21T18:58:28.811Z,6.10
2019-04-21T19:01:05.428Z,4.92
2019-04-21T19:03:35.865Z,4.92
2019-04-21T19:06:08.819Z,4.35
2019-04-21T19:08:56.145Z,5.17
2019-04-21T19:11:19.042Z,7.87
2019-04-21T19:14:20.839Z,6.42
2019-04-21T19:16:42.906Z,4.95
2019-04-21T19:19:41.150Z,6.67
2019-04-21T19:21:33.463Z,4.37
2019-04-21T19:24:20.210Z,4.28
2019-04-21T19:26:49.693Z,9.33
2019-04-21T19:29:19.638Z,8.15
2019-04-21T19:31:44.453Z,7.97
2019-04-21T19:34:02.599Z,7.17
2019-04-21T19:36:25.484Z,7.50
2019-04-21T19:39:03.885Z,8.05
2019-04-21T19:41:38.874Z,7.72
2019-04-21T19:44:14.067Z,7.87
2019-04-21T19:46:40.825Z,8.28
2019-04-21T19:49:24.169Z,6.22
2019-04-21T19:51:36.493Z,6.47
2019-04-21T19:54:03.716Z,5.25
2019-04-21T19:56:25.957Z,7.00
2019-04-21T19:58:55.185Z,5.17
2019-04-21T20:01:23.762Z,5.53
2019-04-21T20:03:57.195Z,4.12
2019-04-21T20:06:42.390Z,5.72
2019-04-21T20:09:12.217Z,5.05
2019-04-21T20:11:38.779Z,3.42
2019-04-21T20:14:37.702Z,3.67
2019-04-21T20:16:44.047Z,6.13
2019-04-21T20:18:59.236Z,5.80
2019-04-21T20:21:24.904Z,6.12
2019-04-21T20:23:57.459Z,3.50
2019-04-21T20:26:33.106Z,8.47
2019-04-21T20:29:07.284Z,6.37
2019-04-21T20:31:43.058Z,3.98
2019-04-21T20:34:21.166Z,5.07
2019-04-21T20:36:51.955Z,4.37
2019-04-21T20:39:05.312Z,4.53
2019-04-21T20:41:40.982Z,4.92
2019-04-21T20:44:21.570Z,6.37
2019-04-21T20:46:45.369Z,5.25
2019-04-21T20:49:15.722Z,4.85
2019-04-21T20:52:01.191Z,6.03
2019-04-21T20:54:20.902Z,4.65
2019-04-21T20:56:55.129Z,3.42
2019-04-21T20:59:23.613Z,4.62
2019-04-21T21:01:50.676Z,5.70
2019-04-21T21:04:17.536Z,6.15
2019-04-21T21:06:47.159Z,9.58
2019-04-21T21:09:22.131Z,7.12
2019-04-21T21:12:09.958Z,10.50
2019-04-21T21:14:26.313Z,5.82
2019-04-21T21:16:57.893Z,7.08
2019-04-21T21:19:32.942Z,4.78
2019-04-21T21:21:54.026Z,7.97
2019-04-21T21:24:39.338Z,7.42
2019-04-21T21:27:04.417Z,5.83
2019-04-21T21:29:29.177Z,2.52
2019-04-21T21:32:06.666Z,8.03
2019-04-21T21:34:38.833Z,6.20
2019-04-21T21:37:01.884Z,6.10
2019-04-21T21:39:31.429Z,6.35
2019-04-21T21:41:49.786Z,6.30
2019-04-21T21:44:19.693Z,6.20
2019-04-21T21:46:59.443Z,9.10
2019-04-21T21:49:29.326Z,8.88
2019-04-21T21:51:57.014Z,5.22
2019-04-21T21:54:15.868Z,7.35
2019-04-21T21:56:44.755Z,7.70
2019-04-21T21:59:20.108Z,9.48
2019-04-21T22:01:49.282Z,8.57
2019-04-21T22:04:20.796Z,7.60
2019-04-21T22:06:54.158Z,8.10
2019-04-21T22:09:18.696Z,8.88
2019-04-21T22:11:48.575Z,6.40
2019-04-21T22:14:28.270Z,9.13
2019-04-21T22:17:06.460Z,6.33
2019-04-21T22:19:36.737Z,9.13
2019-04-21T22:22:08.108Z,7.35
2019-04-21T22:24:35.816Z,8.75
2019-04-21T22:26:49.365Z,6.97
2019-04-21T22:29:19.282Z,10.90
2019-04-21T22:31:48.336Z,8.53
2019-04-21T22:34:21.812Z,8.20
2019-04-21T22:36:59.001Z,6.65
2019-04-21T22:39:35.038Z,9.05
2019-04-21T22:41:58.526Z,7.95
2019-04-21T22:44:19.030Z,8.25
2019-04-21T22:47:00.803Z,7.70
2019-04-21T22:49:18.653Z,7.83
2019-04-21T22:51:50.483Z,8.78
2019-04-21T22:54:20.763Z,7.62
2019-04-21T22:56:57.132Z,10.40
2019-04-21T22:59:21.020Z,6.07
2019-04-21T23:01:51.898Z,6.87
2019-04-21T23:04:19.267Z,8.78
2019-04-21T23:06:51.317Z,8.30
2019-04-21T23:09:19.497Z,8.73
2019-04-21T23:11:51.089Z,4.40
2019-04-21T23:14:19.040Z,7.10
2019-04-21T23:16:54.202Z,10.20
2019-04-21T23:19:35.793Z,6.87
2019-04-21T23:22:09.530Z,8.00
2019-04-21T23:24:50.000Z,7.00
2019-04-21T23:27:09.157Z,6.53
2019-04-21T23:29:57.041Z,6.20
2019-04-21T23:32:12.363Z,6.25
2019-04-21T23:34:30.811Z,4.47
2019-04-21T23:37:02.835Z,6.50
2019-04-21T23:39:30.104Z,10.40
2019-04-21T23:41:57.114Z,4.60
2019-04-21T23:44:26.016Z,9.33
2019-04-21T23:46:57.571Z,8.90
2019-04-21T23:49:37.991Z,6.60
2019-04-21T23:52:02.998Z,7.37
2019-04-21T23:54:27.253Z,5.22
2019-04-21T23:57:05.020Z,5.78
2019-04-21T23:59:32.875Z,6.12
